Time;durP1;ratioP1;P1;durP2;ratioP2;P2;SDS_P1;SDS_P2;PMS_P1;PMS_P2;Temp;Humidity;BMP_temperature;BMP_pressure;BME280_temperature;BME280_humidity;BME280_pressure;Samples;Min_cycle;Max_cycle;Signal;HPM_P1;HPM_P2
2021/11/28 00:01:12;;;;;;;5.05;1.58;;;19.60;56.30;;;;;;6152596;22;89128;-78
2021/11/28 00:03:38;;;;;;;6.88;1.60;;;19.60;56.40;;;;;;6152829;22;88599;-78
2021/11/28 00:06:08;;;;;;;8.38;1.92;;;19.60;56.40;;;;;;6152097;22;87594;-78
2021/11/28 00:11:18;;;;;;;4.07;1.67;;;19.60;56.50;;;;;;6153419;22;87962;-78
2021/11/28 00:14:07;;;;;;;5.97;1.55;;;19.60;56.50;;;;;;6152747;22;90328;-77
2021/11/28 00:16:33;;;;;;;4.72;1.60;;;19.50;56.50;;;;;;6153933;22;87705;-77
2021/11/28 00:18:59;;;;;;;5.90;1.67;;;19.50;56.50;;;;;;6154121;22;86508;-77
2021/11/28 00:21:25;;;;;;;4.35;1.23;;;19.50;56.50;;;;;;6156526;22;88016;-77
2021/11/28 00:23:51;;;;;;;3.63;1.60;;;19.50;56.50;;;;;;6155365;22;87011;-78
2021/11/28 00:26:16;;;;;;;6.65;1.38;;;19.50;56.50;;;;;;6154340;22;88740;-76
2021/11/28 00:28:42;;;;;;;3.83;1.60;;;19.40;56.60;;;;;;6156018;22;87278;-80
2021/11/28 00:31:08;;;;;;;4.35;1.38;;;19.50;56.60;;;;;;6155405;22;88042;-77
2021/11/28 00:33:34;;;;;;;3.97;1.33;;;19.50;56.60;;;;;;6155706;22;87608;-78
2021/11/28 00:35:59;;;;;;;3.17;1.17;;;19.50;56.60;;;;;;6154971;22;88031;-78
2021/11/28 00:38:25;;;;;;;5.82;1.75;;;19.40;56.60;;;;;;6155634;22;87251;-79
2021/11/28 00:40:51;;;;;;;5.20;1.70;;;19.50;56.70;;;;;;6157198;22;88046;-78
2021/11/28 00:43:18;;;;;;;4.18;1.45;;;19.40;56.70;;;;;;6156832;22;87646;-78
2021/11/28 00:45:46;;;;;;;4.70;1.20;;;19.40;57.20;;;;;;6156156;22;87539;-78
2021/11/28 00:48:12;;;;;;;2.55;1.40;;;19.40;56.80;;;;;;6156108;22;87415;-78
2021/11/28 00:50:44;;;;;;;8.23;1.95;;;19.40;57.20;;;;;;6156059;22;89498;-77
2021/11/28 00:53:12;;;;;;;3.03;1.38;;;19.40;56.70;;;;;;6154882;22;91384;-78
2021/11/28 00:55:38;;;;;;;4.50;1.30;;;19.40;56.70;;;;;;6156374;22;87293;-77
2021/11/28 00:58:05;;;;;;;4.80;1.60;;;19.40;56.80;;;;;;6154341;22;89423;-78
2021/11/28 01:00:30;;;;;;;4.35;1.48;;;19.30;56.70;;;;;;6154526;22;89788;-80
2021/11/28 01:02:56;;;;;;;4.07;1.10;;;19.30;56.70;;;;;;6154732;22;87770;-79
2021/11/28 01:05:22;;;;;;;3.28;1.20;;;19.30;56.80;;;;;;6155428;22;87762;-79
2021/11/28 01:07:48;;;;;;;3.45;1.10;;;19.30;56.80;;;;;;6155339;22;86739;-79
2021/11/28 01:10:13;;;;;;;3.25;1.60;;;19.30;56.80;;;;;;6152621;22;90632;-78
2021/11/28 01:12:41;;;;;;;4.03;1.50;;;19.30;56.80;;;;;;6154101;22;88586;-79
2021/11/28 01:15:09;;;;;;;2.40;1.10;;;19.30;56.80;;;;;;6154493;22;88692;-79
2021/11/28 01:17:35;;;;;;;2.75;1.13;;;19.30;56.90;;;;;;6154125;22;86991;-79
2021/11/28 01:20:04;;;;;;;3.88;1.10;;;19.30;56.90;;;;;;6153967;22;87429;-79
2021/11/28 01:22:30;;;;;;;2.92;1.17;;;19.30;56.90;;;;;;6153162;22;90626;-80
2021/11/28 01:24:56;;;;;;;2.85;1.10;;;19.30;56.90;;;;;;6154186;22;87543;-80
2021/11/28 01:27:22;;;;;;;3.38;1.20;;;19.20;56.80;;;;;;6154258;22;89185;-79
2021/11/28 01:29:47;;;;;;;3.72;1.25;;;19.30;56.90;;;;;;6156091;22;87883;-78
2021/11/28 01:32:13;;;;;;;3.78;1.13;;;19.30;56.90;;;;;;6155842;22;87469;-78
2021/11/28 01:34:40;;;;;;;3.15;1.20;;;19.20;56.90;;;;;;6153267;22;87153;-79
2021/11/28 01:37:06;;;;;;;4.07;1.40;;;19.20;56.90;;;;;;6153092;22;87623;-79
2021/11/28 01:39:33;;;;;;;6.10;1.23;;;19.20;56.90;;;;;;6153968;22;89179;-79
2021/11/28 01:41:59;;;;;;;1.92;0.93;;;19.20;56.90;;;;;;6154679;22;89832;-81
2021/11/28 01:44:25;;;;;;;2.83;1.30;;;19.20;56.90;;;;;;6155194;22;87341;-80
2021/11/28 01:46:51;;;;;;;5.43;1.48;;;19.20;57.00;;;;;;6152705;22;89422;-79
2021/11/28 01:49:21;;;;;;;7.70;1.83;;;19.20;57.00;;;;;;6152859;22;91012;-80
2021/11/28 01:51:47;;;;;;;2.50;1.17;;;19.20;57.00;;;;;;6154799;22;87761;-79
2021/11/28 01:54:14;;;;;;;3.30;1.13;;;19.20;57.00;;;;;;6154733;22;87449;-78
2021/11/28 01:56:45;;;;;;;2.58;0.95;;;19.20;57.00;;;;;;6157194;22;87017;-79
2021/11/28 01:59:12;;;;;;;2.55;0.80;;;19.20;57.50;;;;;;6158888;22;89748;-79
2021/11/28 02:01:39;;;;;;;2.28;1.10;;;19.20;57.00;;;;;;6157200;22;90427;-79
2021/11/28 02:04:07;;;;;;;3.13;1.00;;;19.20;57.00;;;;;;6158188;22;88921;-79
2021/11/28 02:06:33;;;;;;;3.58;1.30;;;19.10;57.00;;;;;;6155987;22;90604;-80
2021/11/28 02:08:59;;;;;;;1.98;1.20;;;19.10;57.00;;;;;;6157354;22;88140;-79
2021/11/28 02:11:28;;;;;;;4.30;1.38;;;19.10;57.00;;;;;;6155505;22;90182;-80
2021/11/28 02:13:54;;;;;;;2.30;0.90;;;19.10;57.00;;;;;;6155631;22;87724;-79
2021/11/28 02:16:19;;;;;;;2.15;0.98;;;19.10;57.10;;;;;;6155644;22;89806;-79
2021/11/28 02:18:46;;;;;;;2.20;1.00;;;19.10;57.10;;;;;;6155904;22;88225;-79
2021/11/28 02:21:12;;;;;;;1.92;0.90;;;19.10;57.10;;;;;;6155190;22;90986;-81
2021/11/28 02:23:39;;;;;;;3.00;1.30;;;19.10;57.10;;;;;;6155586;22;87859;-79
2021/11/28 02:26:15;;;;;;;3.35;0.90;;;19.10;57.10;;;;;;6155332;22;87029;-77
2021/11/28 02:28:43;;;;;;;3.10;1.00;;;19.10;57.10;;;;;;6156626;22;88991;-79
2021/11/28 02:31:10;;;;;;;2.72;1.30;;;19.00;57.10;;;;;;6157920;22;87593;-80
2021/11/28 02:33:36;;;;;;;2.97;0.90;;;19.10;57.10;;;;;;6156238;22;87491;-78
2021/11/28 02:36:01;;;;;;;4.38;1.45;;;19.10;57.10;;;;;;6157290;22;88551;-78
2021/11/28 02:38:27;;;;;;;3.10;0.90;;;19.10;57.10;;;;;;6155881;22;89830;-77
2021/11/28 02:40:53;;;;;;;2.72;1.40;;;19.00;57.10;;;;;;6155922;22;90570;-78
2021/11/28 02:43:19;;;;;;;4.13;1.10;;;19.10;57.10;;;;;;6155653;22;87283;-77
2021/11/28 02:45:44;;;;;;;2.80;0.88;;;19.10;57.20;;;;;;6155843;22;86506;-77
2021/11/28 02:48:13;;;;;;;2.42;0.85;;;19.10;57.20;;;;;;6153928;22;89716;-79
2021/11/28 02:50:39;;;;;;;1.83;1.02;;;19.00;57.20;;;;;;6156116;22;87768;-79
2021/11/28 02:55:35;;;;;;;2.88;1.10;;;19.10;57.20;;;;;;6155492;22;89908;-78
2021/11/28 02:58:01;;;;;;;1.83;1.00;;;19.00;57.10;;;;;;6156646;22;89959;-78
2021/11/28 03:00:29;;;;;;;1.70;0.90;;;19.00;57.20;;;;;;6155895;22;87686;-78
2021/11/28 03:02:55;;;;;;;5.45;1.40;;;19.00;57.20;;;;;;6156922;22;88345;-77
2021/11/28 03:05:21;;;;;;;3.20;0.95;;;19.00;57.10;;;;;;6158752;22;87426;-78
2021/11/28 03:07:47;;;;;;;4.38;0.98;;;19.00;57.40;;;;;;6157746;22;88096;-78
2021/11/28 03:10:28;;;;;;;3.85;1.02;;;19.00;57.10;;;;;;6155618;22;88192;-77
2021/11/28 03:12:55;;;;;;;2.15;1.10;;;19.00;57.20;;;;;;6156083;22;87009;-77
2021/11/28 03:15:22;;;;;;;1.92;0.77;;;19.00;57.20;;;;;;6155226;22;87778;-78
2021/11/28 03:17:48;;;;;;;2.83;0.90;;;19.00;57.20;;;;;;6155418;22;89715;-78
2021/11/28 03:20:15;;;;;;;1.55;0.75;;;18.90;57.10;;;;;;6155060;22;87286;-78
2021/11/28 03:22:49;;;;;;;3.53;1.10;;;19.00;57.70;;;;;;6155475;22;87783;-78
2021/11/28 03:25:17;;;;;;;2.15;0.65;;;18.90;57.10;;;;;;6154751;22;88406;-80
2021/11/28 03:27:44;;;;;;;2.05;0.90;;;18.90;57.10;;;;;;6156204;22;88278;-78
2021/11/28 03:30:11;;;;;;;2.45;0.65;;;18.90;57.10;;;;;;6154420;22;88771;-78
2021/11/28 03:32:36;;;;;;;0.90;0.68;;;18.90;57.20;;;;;;6156080;22;87241;-78
2021/11/28 03:35:03;;;;;;;3.35;1.27;;;18.90;57.10;;;;;;6154176;22;86856;-79
2021/11/28 03:37:30;;;;;;;2.75;0.95;;;19.00;57.20;;;;;;6153346;22;90801;-78
2021/11/28 03:39:55;;;;;;;3.33;1.08;;;18.90;57.20;;;;;;6153358;22;87997;-79
2021/11/28 03:42:21;;;;;;;1.08;0.70;;;18.90;57.20;;;;;;6152661;22;88304;-78
2021/11/28 03:44:47;;;;;;;2.95;1.40;;;18.90;57.20;;;;;;6153808;22;87422;-78
2021/11/28 03:47:13;;;;;;;1.83;0.88;;;18.90;57.20;;;;;;6154091;22;90750;-79
2021/11/28 03:49:38;;;;;;;1.83;0.80;;;18.90;57.20;;;;;;6154458;22;89358;-78
2021/11/28 03:52:04;;;;;;;1.75;0.63;;;18.90;57.20;;;;;;6155437;22;87340;-78
2021/11/28 03:54:31;;;;;;;1.08;0.73;;;18.90;57.20;;;;;;6155512;22;87959;-78
2021/11/28 03:56:56;;;;;;;2.17;0.80;;;18.90;57.20;;;;;;6154880;22;90447;-79
2021/11/28 03:59:22;;;;;;;1.73;0.80;;;18.90;57.20;;;;;;6153633;22;89125;-78
2021/11/28 04:01:50;;;;;;;1.50;0.85;;;18.90;57.30;;;;;;6153763;22;87541;-78
2021/11/28 04:04:23;;;;;;;2.05;0.70;;;18.90;57.20;;;;;;6154228;22;88539;-78
2021/11/28 04:06:49;;;;;;;1.95;0.80;;;18.90;57.30;;;;;;6160581;22;88109;-78
2021/11/28 04:09:15;;;;;;;1.77;0.70;;;18.80;57.20;;;;;;6164933;22;91351;-79
2021/11/28 04:11:40;;;;;;;1.55;0.75;;;18.90;57.30;;;;;;6160104;22;87484;-79
2021/11/28 04:14:06;;;;;;;3.42;0.90;;;18.80;57.30;;;;;;6158083;22;87861;-79
2021/11/28 04:16:32;;;;;;;2.22;0.88;;;18.80;57.30;;;;;;6158019;22;87744;-79
2021/11/28 04:18:59;;;;;;;1.88;0.90;;;18.80;57.30;;;;;;6157469;22;87535;-77
2021/11/28 04:21:28;;;;;;;1.02;0.90;;;18.80;57.20;;;;;;6158558;22;87050;-78
2021/11/28 04:23:54;;;;;;;0.88;0.55;;;18.80;57.20;;;;;;6157314;22;87123;-78
2021/11/28 04:26:21;;;;;;;1.45;0.80;;;18.80;57.30;;;;;;6155913;22;87883;-78
2021/11/28 04:28:46;;;;;;;2.63;0.80;;;18.80;57.30;;;;;;6157158;22;90249;-78
2021/11/28 04:31:12;;;;;;;1.80;0.90;;;18.80;57.20;;;;;;6155970;22;88368;-78
2021/11/28 04:33:38;;;;;;;1.35;0.88;;;18.80;57.30;;;;;;6157449;22;87739;-79
2021/11/28 04:36:04;;;;;;;1.38;0.70;;;18.80;57.30;;;;;;6155365;22;90662;-78
2021/11/28 04:38:30;;;;;;;1.92;0.70;;;18.80;57.80;;;;;;6156042;22;87936;-79
2021/11/28 04:40:56;;;;;;;1.42;0.90;;;18.80;57.30;;;;;;6155224;22;87149;-79
2021/11/28 04:43:22;;;;;;;1.60;0.60;;;18.80;57.30;;;;;;6156429;22;88924;-79
2021/11/28 04:45:48;;;;;;;2.10;0.82;;;18.80;57.30;;;;;;6155982;22;89832;-79
2021/11/28 04:48:13;;;;;;;1.80;0.70;;;18.80;57.30;;;;;;6155009;22;88867;-78
2021/11/28 04:50:39;;;;;;;1.85;0.85;;;18.80;57.30;;;;;;6156803;22;87246;-79
2021/11/28 04:53:05;;;;;;;2.05;0.68;;;18.80;57.30;;;;;;6155975;22;89303;-78
2021/11/28 04:55:31;;;;;;;1.60;0.95;;;18.80;57.40;;;;;;6156854;22;88610;-78
2021/11/28 04:57:57;;;;;;;0.98;0.60;;;18.80;57.30;;;;;;6157276;22;88301;-80
2021/11/28 05:00:24;;;;;;;1.02;0.60;;;18.80;57.40;;;;;;6156844;22;88011;-78
2021/11/28 05:02:50;;;;;;;2.30;0.85;;;18.70;57.30;;;;;;6158261;22;87462;-79
2021/11/28 05:05:17;;;;;;;1.83;0.90;;;18.80;57.40;;;;;;6156524;22;90695;-78
2021/11/28 05:07:43;;;;;;;1.42;0.70;;;18.70;57.30;;;;;;6158150;22;88420;-79
2021/11/28 05:10:10;;;;;;;2.10;0.70;;;18.70;57.30;;;;;;6157425;22;87580;-79
2021/11/28 05:12:35;;;;;;;1.83;0.65;;;18.80;57.40;;;;;;6159794;22;86696;-78
2021/11/28 05:15:01;;;;;;;1.77;0.90;;;18.70;57.40;;;;;;6158071;22;87782;-79
2021/11/28 05:17:28;;;;;;;1.48;0.80;;;18.70;57.40;;;;;;6158866;22;87936;-78
2021/11/28 05:19:53;;;;;;;1.10;0.70;;;18.70;57.40;;;;;;6157262;22;88297;-79
2021/11/28 05:22:19;;;;;;;2.85;0.70;;;18.70;57.40;;;;;;6158306;22;87020;-78
2021/11/28 05:24:47;;;;;;;3.65;0.75;;;18.70;57.40;;;;;;6156675;22;90516;-79
2021/11/28 05:27:14;;;;;;;1.10;0.77;;;18.70;57.40;;;;;;6157641;22;88200;-78
2021/11/28 05:29:39;;;;;;;1.88;0.60;;;18.70;57.40;;;;;;6155987;22;87869;-78
2021/11/28 05:32:05;;;;;;;1.50;0.95;;;18.70;57.40;;;;;;6157196;22;87910;-79
2021/11/28 05:34:31;;;;;;;1.55;0.85;;;18.70;57.30;;;;;;6154969;22;91240;-78
2021/11/28 05:37:00;;;;;;;1.55;0.70;;;18.70;57.40;;;;;;6157396;22;89705;-78
2021/11/28 05:39:26;;;;;;;2.17;0.77;;;18.70;57.30;;;;;;6155218;22;87834;-79
2021/11/28 05:41:52;;;;;;;2.30;1.20;;;18.70;57.40;;;;;;6155441;22;87098;-78
2021/11/28 05:44:17;;;;;;;1.10;0.70;;;18.70;57.30;;;;;;6154956;22;91225;-79
2021/11/28 05:46:43;;;;;;;1.65;0.68;;;18.70;57.40;;;;;;6154316;22;88382;-78
2021/11/28 05:49:09;;;;;;;1.40;0.80;;;18.60;57.30;;;;;;6155217;22;87324;-78
2021/11/28 05:51:34;;;;;;;0.85;0.60;;;18.70;57.40;;;;;;6155369;22;87184;-78
2021/11/28 05:54:00;;;;;;;1.27;0.60;;;18.60;57.30;;;;;;6156628;22;88842;-79
2021/11/28 05:56:28;;;;;;;1.10;0.60;;;18.60;57.40;;;;;;6155632;22;87532;-79
2021/11/28 05:58:54;;;;;;;2.00;0.70;;;18.70;57.40;;;;;;6155881;22;87805;-78
2021/11/28 06:01:19;;;;;;;1.02;0.63;;;18.60;57.40;;;;;;6156883;22;89387;-79
2021/11/28 06:03:45;;;;;;;2.22;0.80;;;18.70;57.40;;;;;;6155277;22;91132;-78
2021/11/28 06:06:12;;;;;;;1.48;0.80;;;18.60;57.40;;;;;;6156399;22;87650;-77
2021/11/28 06:08:38;;;;;;;1.67;0.82;;;18.60;57.40;;;;;;6156413;22;88472;-79
2021/11/28 06:11:03;;;;;;;1.98;0.82;;;18.60;57.40;;;;;;6158908;22;87685;-79
2021/11/28 06:13:29;;;;;;;2.83;0.80;;;18.60;57.40;;;;;;6159227;22;87495;-79
2021/11/28 06:15:55;;;;;;;1.15;0.63;;;18.60;57.40;;;;;;6161771;22;87279;-80
2021/11/28 06:18:20;;;;;;;1.40;0.70;;;18.60;57.40;;;;;;6167671;22;88155;-78
2021/11/28 06:20:47;;;;;;;1.25;0.45;;;18.60;57.40;;;;;;6158032;22;87517;-78
2021/11/28 06:23:13;;;;;;;0.73;0.60;;;18.60;57.50;;;;;;6155157;22;88079;-77
2021/11/28 06:25:42;;;;;;;1.42;0.90;;;18.60;57.50;;;;;;6154652;22;87726;-78
2021/11/28 06:28:07;;;;;;;2.28;0.88;;;18.70;57.40;;;;;;6154376;22;86951;-77
2021/11/28 06:30:33;;;;;;;1.05;0.85;;;18.80;57.30;;;;;;6152259;22;87888;-77
2021/11/28 06:32:59;;;;;;;0.82;0.70;;;18.90;57.20;;;;;;6152755;22;89401;-78
2021/11/28 06:35:25;;;;;;;2.60;0.70;;;18.90;57.00;;;;;;6151820;22;89693;-78
2021/11/28 06:37:51;;;;;;;1.15;0.82;;;19.00;56.80;;;;;;6152262;22;87303;-77
2021/11/28 06:40:17;;;;;;;0.93;0.63;;;19.20;56.80;;;;;;6153632;22;87267;-78
2021/11/28 06:42:42;;;;;;;1.50;0.70;;;19.20;56.60;;;;;;6151642;22;89893;-78
2021/11/28 06:45:09;;;;;;;1.48;0.80;;;19.30;56.40;;;;;;6151806;22;87619;-77
2021/11/28 06:47:34;;;;;;;2.33;0.80;;;19.40;56.20;;;;;;6150961;22;87206;-78
2021/11/28 06:50:00;;;;;;;1.25;0.80;;;19.50;56.30;;;;;;6152622;22;86863;-77
2021/11/28 06:52:25;;;;;;;1.38;0.77;;;19.60;56.20;;;;;;6149748;22;90614;-77
2021/11/28 06:54:51;;;;;;;2.13;1.00;;;19.70;56.10;;;;;;6150854;22;87651;-78
2021/11/28 06:57:18;;;;;;;1.35;0.70;;;19.70;56.00;;;;;;6151264;22;88177;-77
2021/11/28 06:59:44;;;;;;;3.70;1.15;;;19.80;56.30;;;;;;6149366;22;88402;-78
2021/11/28 07:02:09;;;;;;;0.68;0.55;;;19.90;55.70;;;;;;6150888;22;88391;-78
2021/11/28 07:04:35;;;;;;;2.65;0.80;;;20.00;55.50;;;;;;6151586;22;87583;-78
2021/11/28 07:07:00;;;;;;;1.77;0.70;;;20.10;55.70;;;;;;6151929;22;87575;-77
2021/11/28 07:09:27;;;;;;;5.13;0.90;;;20.10;55.70;;;;;;6152209;22;88613;-78
2021/11/28 07:11:53;;;;;;;5.90;1.00;;;20.20;55.70;;;;;;6158097;22;88048;-78
2021/11/28 07:14:19;;;;;;;2.38;0.90;;;20.20;55.80;;;;;;6159001;22;88889;-78
2021/11/28 07:16:45;;;;;;;6.82;0.90;;;20.30;55.80;;;;;;6159108;22;87608;-78
2021/11/28 07:19:10;;;;;;;3.38;1.10;;;20.30;55.80;;;;;;6157400;22;87603;-78
2021/11/28 07:21:37;;;;;;;3.40;1.20;;;20.30;55.90;;;;;;6152259;22;91809;-78
2021/11/28 07:24:03;;;;;;;8.48;1.52;;;20.30;55.80;;;;;;6152604;22;89823;-78
2021/11/28 07:26:29;;;;;;;3.10;1.50;;;20.30;55.80;;;;;;6152845;22;87629;-78
2021/11/28 07:28:55;;;;;;;8.13;1.73;;;20.40;55.80;;;;;;6154907;22;87514;-78
2021/11/28 07:31:21;;;;;;;6.75;1.63;;;20.40;55.70;;;;;;6157965;22;87738;-78
2021/11/28 07:33:46;;;;;;;6.05;2.30;;;20.40;55.60;;;;;;6154855;22;90337;-78
2021/11/28 07:36:12;;;;;;;8.32;3.05;;;20.40;55.40;;;;;;6154032;22;87314;-78
2021/11/28 07:38:38;;;;;;;9.80;2.80;;;20.40;55.40;;;;;;6155527;22;86956;-77
2021/11/28 07:41:04;;;;;;;12.82;3.30;;;20.40;55.30;;;;;;6153890;22;89539;-78
2021/11/28 07:43:31;;;;;;;12.75;3.33;;;20.50;55.30;;;;;;6154579;22;90598;-78
2021/11/28 07:45:57;;;;;;;8.57;3.58;;;20.50;55.20;;;;;;6155083;22;88258;-78
2021/11/28 07:48:23;;;;;;;13.32;3.72;;;20.50;55.00;;;;;;6158367;22;87611;-78
2021/11/28 07:50:49;;;;;;;9.13;3.78;;;20.50;54.90;;;;;;6160089;22;87574;-79
2021/11/28 07:53:15;;;;;;;9.95;3.10;;;20.60;54.90;;;;;;6163567;22;87482;-76
2021/11/28 07:55:42;;;;;;;10.23;3.65;;;20.60;54.70;;;;;;6162129;22;87276;-77
2021/11/28 07:58:08;;;;;;;11.93;3.90;;;20.60;54.50;;;;;;6161418;22;87092;-76
2021/11/28 08:00:35;;;;;;;10.70;3.17;;;20.60;54.30;;;;;;6159756;22;87890;-77
2021/11/28 08:03:01;;;;;;;9.95;3.20;;;20.50;54.10;;;;;;6087045;22;87768;-76
2021/11/28 08:05:27;;;;;;;10.27;3.28;;;20.60;53.90;;;;;;6161898;22;87015;-77
2021/11/28 08:07:54;;;;;;;9.07;3.50;;;20.60;53.80;;;;;;6160649;22;87467;-78
2021/11/28 08:10:20;;;;;;;12.90;3.90;;;20.60;53.60;;;;;;6159070;22;88596;-78
2021/11/28 08:12:46;;;;;;;9.15;3.88;;;20.60;53.40;;;;;;6156878;22;88330;-77
2021/11/28 08:15:16;;;;;;;7.85;3.63;;;20.60;53.40;;;;;;6153273;22;87874;-77
2021/11/28 08:17:43;;;;;;;6.90;2.95;;;20.50;53.20;;;;;;6159258;22;87508;-78
2021/11/28 08:20:09;;;;;;;7.25;3.78;;;20.50;53.30;;;;;;6158648;22;87826;-77
2021/11/28 08:22:36;;;;;;;10.40;3.40;;;20.50;53.10;;;;;;6159898;22;88258;-79
2021/11/28 08:25:04;;;;;;;8.13;3.58;;;20.60;53.60;;;;;;6164360;22;87403;-78
2021/11/28 08:27:29;;;;;;;9.15;3.80;;;20.60;52.90;;;;;;6168271;22;89696;-79
2021/11/28 08:29:57;;;;;;;11.32;3.92;;;20.60;52.70;;;;;;6175603;22;90561;-80
2021/11/28 08:32:23;;;;;;;12.60;3.72;;;20.60;52.70;;;;;;6178246;22;88935;-78
2021/11/28 08:34:49;;;;;;;8.50;3.58;;;20.50;52.60;;;;;;6178554;22;88229;-79
2021/11/28 08:37:15;;;;;;;6.65;3.33;;;20.50;52.50;;;;;;6177274;22;87633;-79
2021/11/28 08:39:41;;;;;;;8.38;3.67;;;20.50;52.50;;;;;;6179116;22;89563;-79
2021/11/28 08:42:08;;;;;;;8.38;3.63;;;20.50;52.50;;;;;;6179180;22;87597;-79
2021/11/28 08:44:52;;;;;;;7.43;3.70;;;20.50;52.40;;;;;;6180935;22;87477;-78
2021/11/28 08:47:18;;;;;;;7.00;3.53;;;20.50;52.50;;;;;;6175741;22;87610;-79
2021/11/28 08:49:45;;;;;;;7.13;3.20;;;20.50;52.40;;;;;;6174437;22;87112;-79
2021/11/28 08:52:13;;;;;;;5.57;3.55;;;20.40;52.40;;;;;;6176123;22;86399;-78
2021/11/28 08:54:40;;;;;;;8.40;3.60;;;20.40;52.40;;;;;;6174070;22;87271;-78
2021/11/28 08:57:05;;;;;;;6.45;2.92;;;20.40;52.30;;;;;;6175017;22;87055;-79
2021/11/28 08:59:31;;;;;;;8.43;3.33;;;20.40;52.20;;;;;;6174256;22;88136;-78
2021/11/28 09:01:58;;;;;;;4.35;2.60;;;20.40;52.20;;;;;;6175180;22;88495;-80
2021/11/28 09:04:25;;;;;;;10.60;3.10;;;20.40;52.20;;;;;;6178279;22;87053;-79
2021/11/28 09:06:51;;;;;;;7.07;3.38;;;20.40;52.20;;;;;;6183836;22;86723;-76
2021/11/28 09:09:17;;;;;;;6.70;2.90;;;20.50;52.20;;;;;;6169077;22;89319;-78
2021/11/28 09:11:43;;;;;;;6.90;3.10;;;20.50;52.00;;;;;;6164441;22;87042;-78
2021/11/28 09:14:09;;;;;;;7.57;3.42;;;20.50;51.90;;;;;;6163564;22;87215;-78
2021/11/28 09:16:35;;;;;;;7.72;3.35;;;20.60;51.80;;;;;;6167577;22;86492;-77
2021/11/28 09:19:06;;;;;;;8.18;3.47;;;20.60;51.80;;;;;;6167181;22;87952;-78
2021/11/28 09:21:32;;;;;;;7.18;3.22;;;20.60;51.70;;;;;;6171640;22;89604;-79
2021/11/28 09:26:43;;;;;;;7.03;3.38;;;20.50;51.70;;;;;;6172073;22;87599;-78
2021/11/28 09:29:10;;;;;;;7.10;3.38;;;20.50;51.60;;;;;;6167560;22;90391;-80
2021/11/28 09:31:35;;;;;;;6.60;2.95;;;20.50;51.60;;;;;;6167176;22;88944;-77
2021/11/28 09:34:02;;;;;;;7.53;3.53;;;20.50;51.70;;;;;;6170444;22;86841;-78
2021/11/28 09:36:31;;;;;;;7.63;2.92;;;20.40;51.60;;;;;;6168560;22;87687;-79
2021/11/28 09:38:58;;;;;;;8.20;3.33;;;20.50;51.70;;;;;;6170905;22;87614;-78
2021/11/28 09:41:31;;;;;;;7.25;3.70;;;20.40;51.60;;;;;;6179646;22;89041;-81
2021/11/28 09:44:08;;;;;;;5.95;3.35;;;20.40;51.50;;;;;;6183229;22;86546;-78
2021/11/28 09:46:35;;;;;;;6.95;3.65;;;20.40;51.50;;;;;;6180766;22;87531;-80
2021/11/28 09:49:04;;;;;;;7.90;3.95;;;20.40;51.50;;;;;;6181223;22;90163;-78
2021/11/28 09:51:32;;;;;;;7.93;3.40;;;20.40;51.60;;;;;;6173477;22;89987;-78
2021/11/28 09:54:07;;;;;;;4.75;2.90;;;20.40;51.50;;;;;;6166126;22;86992;-77
2021/11/28 09:56:38;;;;;;;7.38;3.05;;;20.50;51.40;;;;;;6165107;22;87082;-77
2021/11/28 09:59:05;;;;;;;5.45;3.35;;;20.50;51.30;;;;;;6160950;22;88411;-77
2021/11/28 10:01:33;;;;;;;5.85;3.03;;;20.60;51.30;;;;;;6163670;22;87308;-78
2021/11/28 10:04:00;;;;;;;5.13;3.15;;;20.60;51.20;;;;;;6162840;22;87476;-78
2021/11/28 10:06:28;;;;;;;4.85;3.08;;;20.60;51.10;;;;;;6167787;22;86461;-79
2021/11/28 10:09:07;;;;;;;6.28;3.67;;;20.60;51.10;;;;;;6165127;22;90564;-76
2021/11/28 10:11:39;;;;;;;6.22;3.22;;;20.60;51.10;;;;;;6159772;22;88660;-80
2021/11/28 10:14:09;;;;;;;5.38;3.45;;;20.60;51.00;;;;;;6181734;22;87996;-80
2021/11/28 10:16:35;;;;;;;6.53;3.78;;;20.50;50.90;;;;;;6136895;22;86385;-79
2021/11/28 10:19:01;;;;;;;4.72;3.42;;;20.50;50.90;;;;;;6181104;22;88786;-81
2021/11/28 10:21:28;;;;;;;6.25;3.20;;;20.50;50.90;;;;;;6180828;22;87020;-76
2021/11/28 10:24:16;;;;;;;6.03;3.55;;;20.50;51.00;;;;;;6182500;22;86885;-80
2021/11/28 10:27:09;;;;;;;5.63;3.20;;;20.50;51.00;;;;;;6181613;22;87037;-75
2021/11/28 10:29:38;;;;;;;5.70;3.42;;;20.50;51.00;;;;;;6179994;22;90426;-78
2021/11/28 10:32:07;;;;;;;7.00;3.30;;;20.50;50.90;;;;;;6175995;22;88956;-77
2021/11/28 10:34:44;;;;;;;6.10;3.30;;;20.50;51.30;;;;;;6166831;22;87441;-77
2021/11/28 10:37:16;;;;;;;5.68;3.78;;;20.50;50.90;;;;;;6158389;22;88324;-77
2021/11/28 10:39:43;;;;;;;5.75;3.78;;;20.50;50.80;;;;;;6155022;22;89148;-78
2021/11/28 10:42:23;;;;;;;7.47;3.95;;;20.60;50.70;;;;;;6157616;22;88237;-77
2021/11/28 10:45:10;;;;;;;6.50;3.08;;;20.70;50.40;;;;;;6160007;22;87420;-79
2021/11/28 10:47:43;;;;;;;6.32;3.83;;;20.70;50.40;;;;;;6156560;22;87038;-78
2021/11/28 10:50:25;;;;;;;4.97;3.45;;;20.70;50.30;;;;;;6156455;22;90431;-78
2021/11/28 10:53:11;;;;;;;5.75;3.58;;;20.80;50.30;;;;;;6158793;22;90300;-78
2021/11/28 10:55:40;;;;;;;5.47;3.60;;;20.70;50.20;;;;;;6161566;22;87041;-81
2021/11/28 10:58:09;;;;;;;8.05;3.60;;;20.70;50.20;;;;;;6162517;22;86506;-78
2021/11/28 11:00:59;;;;;;;7.22;3.67;;;20.70;50.20;;;;;;6160588;22;88084;-78
2021/11/28 11:03:29;;;;;;;6.50;4.15;;;20.70;50.20;;;;;;6154926;22;87471;-78
2021/11/28 11:06:24;;;;;;;7.07;3.88;;;20.70;50.20;;;;;;6158204;22;88324;-77
2021/11/28 11:08:55;;;;;;;5.10;3.70;;;20.70;50.20;;;;;;6157629;22;87702;-78
2021/11/28 11:11:22;;;;;;;6.63;4.22;;;20.70;50.20;;;;;;6158512;22;88924;-76
2021/11/28 11:14:02;;;;;;;6.57;3.90;;;20.70;50.20;;;;;;6158743;22;87302;-77
2021/11/28 11:16:39;;;;;;;6.03;3.80;;;20.60;50.20;;;;;;6160996;22;87682;-76
2021/11/28 11:20:08;;;;;;;4.55;3.40;;;20.60;50.20;;;;;;6161194;22;87302;-79
2021/11/28 11:22:27;;;;;;;7.10;3.70;;;20.60;50.20;;;;;;6164534;22;88247;-78
2021/11/28 11:24:56;;;;;;;6.95;3.67;;;20.60;50.40;;;;;;6179569;22;89324;-80
2021/11/28 11:27:29;;;;;;;5.15;3.25;;;20.60;50.40;;;;;;6180072;22;86888;-79
2021/11/28 11:30:00;;;;;;;5.20;3.72;;;20.60;50.40;;;;;;6166105;22;88060;-78
2021/11/28 11:32:44;;;;;;;6.13;3.65;;;20.60;50.50;;;;;;6168764;22;89199;-79
2021/11/28 11:35:25;;;;;;;5.63;3.83;;;20.60;50.40;;;;;;6175864;22;89341;-80
2021/11/28 11:37:55;;;;;;;9.10;4.38;;;20.60;50.30;;;;;;6176191;22;86898;-79
2021/11/28 11:40:49;;;;;;;8.10;4.22;;;20.70;50.20;;;;;;6178172;22;86935;-78
2021/11/28 11:43:22;;;;;;;7.07;4.15;;;20.70;50.20;;;;;;6186939;22;88125;-79
2021/11/28 11:46:32;;;;;;;7.80;3.95;;;20.70;50.30;;;;;;6164048;22;89019;-81
2021/11/28 11:49:04;;;;;;;6.18;3.53;;;20.70;50.30;;;;;;6187391;22;86196;-80
2021/11/28 11:52:12;;;;;;;5.68;3.58;;;20.70;50.10;;;;;;6187785;22;87962;-78
2021/11/28 11:55:09;;;;;;;6.97;3.33;;;20.80;50.00;;;;;;6188423;22;86894;-83
2021/11/28 11:58:13;;;;;;;6.22;3.97;;;20.80;50.00;;;;;;6188146;22;86577;-76
2021/11/28 12:00:52;;;;;;;6.53;3.70;;;20.80;50.10;;;;;;6157805;22;88990;-67
2021/11/28 12:03:22;;;;;;;6.10;4.10;;;20.70;50.10;;;;;;6148565;22;87993;-68
2021/11/28 12:05:57;;;;;;;8.90;4.05;;;20.70;50.10;;;;;;6148376;22;91324;-67
2021/11/28 12:08:27;;;;;;;14.15;4.90;;;20.70;50.20;;;;;;6149092;22;87953;-66
2021/11/28 12:10:54;;;;;;;10.88;4.60;;;20.70;50.40;;;;;;6148024;22;87847;-67
2021/11/28 12:13:23;;;;;;;9.20;4.50;;;20.70;50.40;;;;;;6148131;22;87444;-68
2021/11/28 12:15:49;;;;;;;12.98;5.13;;;20.60;50.60;;;;;;6149085;22;87963;-67
2021/11/28 12:18:34;;;;;;;9.80;4.68;;;20.60;50.80;;;;;;6147355;22;90119;-66
2021/11/28 12:21:17;;;;;;;10.77;4.72;;;20.60;50.90;;;;;;6147952;22;87680;-66
2021/11/28 12:23:46;;;;;;;10.32;4.50;;;20.60;51.00;;;;;;6150277;22;87418;-68
2021/11/28 12:26:27;;;;;;;10.85;4.72;;;20.60;51.10;;;;;;6148749;22;88558;-66
2021/11/28 12:28:56;;;;;;;12.15;4.45;;;20.60;51.10;;;;;;6149620;22;89167;-68
2021/11/28 12:31:30;;;;;;;12.38;4.32;;;20.60;51.20;;;;;;6148914;22;87981;-66
2021/11/28 12:34:01;;;;;;;11.75;4.88;;;20.50;51.20;;;;;;6147869;22;90396;-67
2021/11/28 12:36:39;;;;;;;10.90;4.30;;;20.60;51.30;;;;;;6147686;22;88972;-68
2021/11/28 12:39:18;;;;;;;11.75;4.90;;;20.60;51.40;;;;;;6148349;22;91043;-68
2021/11/28 12:41:44;;;;;;;8.45;4.03;;;20.50;51.30;;;;;;6148693;22;87620;-66
2021/11/28 12:44:18;;;;;;;12.90;4.55;;;20.60;51.30;;;;;;6149004;22;90312;-66
2021/11/28 12:46:47;;;;;;;8.65;3.92;;;20.60;51.20;;;;;;6149281;22;88517;-65
2021/11/28 12:49:48;;;;;;;8.25;3.80;;;20.70;51.20;;;;;;6149614;22;90031;-66
2021/11/28 12:52:23;;;;;;;9.02;4.22;;;20.80;51.20;;;;;;6149606;22;88581;-68
2021/11/28 12:55:09;;;;;;;8.43;4.43;;;20.80;51.10;;;;;;6148669;22;89766;-66
2021/11/28 12:58:00;;;;;;;11.15;4.13;;;20.80;51.10;;;;;;6148368;22;90827;-65
2021/11/28 13:00:27;;;;;;;9.48;4.53;;;20.90;51.20;;;;;;6147668;22;91164;-67
2021/11/28 13:02:58;;;;;;;8.32;3.58;;;20.90;51.20;;;;;;6149350;22;87711;-65